Relevés horaires Matro (Suisse)


Relevés horaires à Matro - Mercredi 15 Mai 2019
Heure UTC1 Température [°C] Vent [km/h] Hum. [%] Pres.4 [hPa] Visi. [Km] Nébu. [octa] Préc.5 [mm] Cond.
2m. Res. Ros. Dir.2 Vit. Moy. Raf.3
23:00 -1.5 -5.4 -5.5 NNO 11.1 -- 16.7 74 850(-0.4/3h) -- -- -- --
22:00 -1.3 -4.1 -5.7 NO 7.4 -- 16.7 72 850(0.2/3h) -- -- -- --
21:00 -1.9 -6.7 -5.4 NO 14.8 -- 44.4 77 850(0.8/3h) -- -- -- --
20:00 -1.9 -8.5 -5.4 NNO 25.9 -- 40.7 77 850(0.8/3h) -- -- -- --
19:00 -1.5 -7.5 -5.5 NNO 22.2 -- 44.4 74 850(0.8/3h) -- -- -- --
18:00 -0.3 -7.5 -5.5 NNO 37.0 -- 50.0 68 850(0.1/3h) -- -- -- --
17:00 0.2 -6.5 -5.6 NNO 33.3 -- 44.4 65 850(0.0/3h) -- -- -- --
16:00 0.6 -6 -5.5 NNO 33.3 -- 38.9 64 850(-0.1/3h) -- -- -- --
15:00 0.8 -5.2 -6.7 NNO 27.8 -- 50.0 57 850(0.1/3h) -- -- -- --
14:00 0.8 -5.7 -6.6 NNO 33.3 -- 44.4 58 850(0.4/3h) -- -- -- --
13:00 0.7 -5.1 -6.6 NO 25.9 -- 50.0 58 850(0.5/3h) -- -- -- --
12:00 -0.6 -7 -7.2 NO 27.8 -- 61.1 61 850(0.4/3h) -- -- -- --
11:00 -1.3 -9 -8.0 NO 38.9 -- 61.1 60 850(0.3/3h) -- -- -- --
10:00 -1.9 -8.9 -8.6 NO 29.6 -- 48.2 60 850(0.4/3h) -- -- -- --
09:00 -2.7 -9.7 -9.0 NO 27.8 -- 50.0 62 850(0.6/3h) -- -- -- --
08:00 -4.1 -11.6 -10.2 NO 27.8 -- 44.4 62 850(0.3/3h) -- -- -- --
07:00 -4.9 -12.6 -10.9 NNO 27.8 -- 50.0 63 850(-0.3/3h) -- -- -- --
06:00 -5.3 -14 -11.6 NNO 35.2 -- 75.9 61 850(-0.5/3h) -- -- -- --
05:00 -5.8 -14.8 -12.0 NNO 37.0 -- 50.0 61 850(-1.0/3h) -- -- -- --
04:00 -6.0 -14 -12.4 NO 27.8 -- 48.2 60 850(-1.2/3h) -- -- -- --
03:00 -5.7 -14.5 -5.7 NNO 35.2 -- 75.9 100 850(-1.5/3h) -- -- -- --
02:00 -5.1 -14.6 -6.8 NNO 44.4 -- 75.9 88 850(-1.7/3h) -- -- -- --
01:00 -4.8 -14.5 -12.7 NNO 48.2 -- 70.4 54 850(-1.6/3h) -- -- -- --
00:00 -6.2 -16.6 -11.2 NNO 50.0 -- 74.1 68 850(-1.6/3h) -- -- -- --

1 Coordinated Universal Time. Actuellement il est 13:00 locale et 11:00 UTC.

2 Le vent souffle depuis la direction indiquée vers la direction oposée.

3 Les rafales max. sont disponible 40 min après l'heure du relevé.

4 Pour les stations d'altitude (plus de 600m) le géopotentiel du niveau le plus proche de la pression obligatoire est indiqué.

5 Les stations disposant d'un diffuseur peuvent indiquer "trace". Cela signifie que des précipitations ont touchés le sol mais que la quantité est inférieure à 0.1 mm.

Copyright

Les données affichées sur cette page sont la propriété exclusive de Météo Suisse.

Récapitulatif de la journée
Température [°C] Vent [km/h] Ensoleillement4 [h] Precipitations totale5 [mm] Pression [Hpa]
Min1 Max.2 Moy.3 Max. Min Max.
-6.2 1.0 0 75.9 13 h 36 min 0 850.0 850.0

1 Température minimale relevée entre 18:00 UTC la veille et 18:00 UTC le jour donné.

2 Température maximale relevée entre 06:00 UTC le jour donné et 06:00 UTC le lendemain.

3 Vent moyen de la journée basé sur les relevés horaires.

4 Ensoleillement en heures relevé entre 06:00 UTC la veille et 06:00 UTC le jour donné.

5 Précipitations totales tombées entre 06:00 UTC la jour donné et 06:00 UTC le lendemain.

Graphiques horaires